Time;durP1;ratioP1;P1;durP2;ratioP2;P2;SDS_P1;SDS_P2;PMS_P1;PMS_P2;Temp;Humidity;BMP_temperature;BMP_pressure;BME280_temperature;BME280_humidity;BME280_pressure;Samples;Min_cycle;Max_cycle;Signal;HPM_P1;HPM_P2
2022/08/04 00:02:09;;;;;;;0.00;0.00;;;22.40;99.90;226.50;231333.00;;;;5052982;28;20206;-75
2022/08/04 00:04:48;;;;;;;0.00;0.00;;;22.40;99.90;226.50;231333.00;;;;5055025;28;20202;-75
2022/08/04 00:07:26;;;;;;;0.00;0.00;;;22.40;99.90;226.50;231333.00;;;;5060515;28;20190;-74
2022/08/04 00:10:16;;;;;;;0.00;0.00;;;22.40;99.90;226.50;231333.00;;;;5061378;28;20300;-75
2022/08/04 00:12:54;;;;;;;0.00;0.00;;;22.30;99.90;226.50;231333.00;;;;5071995;28;20210;-75
2022/08/04 00:15:25;;;;;;;0.00;0.00;;;22.30;99.90;226.50;231333.00;;;;5071754;28;20552;-75
2022/08/04 00:17:59;;;;;;;0.00;0.00;;;22.30;99.90;226.50;231333.00;;;;5071726;28;20572;-75
2022/08/04 00:20:32;;;;;;;0.00;0.00;;;22.40;99.90;226.50;231333.00;;;;5061150;28;20202;-75
2022/08/04 00:23:02;;;;;;;0.00;0.00;;;22.30;99.90;226.50;231333.00;;;;5066961;28;20217;-75
2022/08/04 00:25:30;;;;;;;0.00;0.00;;;22.30;99.90;226.50;231333.00;;;;5061997;28;20194;-76
2022/08/04 00:28:01;;;;;;;0.00;0.00;;;22.20;99.90;226.50;231333.00;;;;5051627;28;20201;-75
2022/08/04 00:30:31;;;;;;;0.00;0.00;;;22.20;99.90;226.50;231333.00;;;;5052127;28;20205;-76
2022/08/04 00:33:01;;;;;;;0.00;0.00;;;22.20;99.90;226.50;231333.00;;;;5065398;28;20213;-75
2022/08/04 00:35:29;;;;;;;0.00;0.00;;;22.20;99.90;226.50;231333.00;;;;5071639;28;20695;-75
2022/08/04 00:37:59;;;;;;;0.00;0.00;;;22.30;99.90;226.50;231333.00;;;;5071488;28;20189;-77
2022/08/04 00:40:43;;;;;;;0.00;0.00;;;22.40;99.90;226.50;231333.00;;;;5071981;28;20243;-77
2022/08/04 00:43:21;;;;;;;0.00;0.00;;;22.40;99.90;226.50;231333.00;;;;5056079;28;20596;-75
2022/08/04 00:47:04;;;;;;;0.00;0.00;;;22.30;99.90;226.50;231333.00;;;;5050696;28;20198;-75
2022/08/04 00:50:03;;;;;;;0.00;0.00;;;22.20;99.90;226.50;231333.00;;;;5030816;28;20248;-75
2022/08/04 00:52:48;;;;;;;0.00;0.00;;;22.30;99.90;226.50;231333.00;;;;5055269;28;20711;-75
2022/08/04 00:55:41;;;;;;;0.00;0.00;;;22.20;99.90;226.50;231333.00;;;;5069334;28;20194;-76
2022/08/04 00:58:29;;;;;;;0.00;0.00;;;22.30;99.90;226.50;231333.00;;;;5071170;28;20197;-76
2022/08/04 01:01:01;;;;;;;0.00;0.00;;;22.30;99.90;226.50;231333.00;;;;5065090;28;20207;-75
2022/08/04 01:03:51;;;;;;;0.00;0.00;;;22.10;99.90;226.50;231333.00;;;;5060324;28;20222;-75
2022/08/04 01:06:34;;;;;;;0.00;0.00;;;22.00;99.90;226.50;231333.00;;;;5052258;28;20661;-76
2022/08/04 01:09:27;;;;;;;0.00;0.00;;;21.90;99.90;226.50;231333.00;;;;5066818;28;20213;-77
2022/08/04 01:12:21;;;;;;;0.00;0.00;;;21.90;99.90;226.50;231333.00;;;;5065538;28;20209;-75
2022/08/04 01:15:05;;;;;;;0.00;0.00;;;21.80;99.90;226.50;231333.00;;;;5063080;28;20201;-74
2022/08/04 01:18:03;;;;;;;0.00;0.00;;;21.80;99.90;226.50;231333.00;;;;5071011;28;20602;-75
2022/08/04 01:20:40;;;;;;;0.00;0.00;;;21.80;99.90;226.50;231333.00;;;;5065598;28;20195;-75
2022/08/04 01:24:00;;;;;;;0.00;0.00;;;21.60;99.90;226.50;231333.00;;;;5051155;28;20729;-74
2022/08/04 01:26:52;;;;;;;0.00;0.00;;;21.60;99.90;226.50;231333.00;;;;5070090;28;20571;-75
2022/08/04 01:29:35;;;;;;;0.00;0.00;;;21.70;99.90;226.50;231333.00;;;;5050654;28;20259;-76
2022/08/04 01:32:21;;;;;;;0.00;0.00;;;21.70;99.90;226.50;231333.00;;;;5050294;28;20209;-75
2022/08/04 01:35:00;;;;;;;0.00;0.00;;;21.70;99.90;226.50;231333.00;;;;5051868;28;20608;-75
2022/08/04 01:37:47;;;;;;;0.00;0.00;;;21.70;99.90;226.50;231333.00;;;;5050510;28;20190;-75
2022/08/04 01:40:17;;;;;;;0.00;0.00;;;21.60;99.90;226.50;231333.00;;;;5051113;28;20178;-75
2022/08/04 01:42:46;;;;;;;0.00;0.00;;;21.60;99.90;226.50;231333.00;;;;5051059;28;20233;-75
2022/08/04 01:45:16;;;;;;;0.00;0.00;;;21.60;99.90;226.50;231333.00;;;;5063932;28;20197;-75
2022/08/04 01:47:50;;;;;;;0.00;0.00;;;21.60;99.90;226.50;231333.00;;;;5071363;28;20194;-75
2022/08/04 01:50:20;;;;;;;0.00;0.00;;;21.50;99.90;226.50;231333.00;;;;5064745;28;20279;-75
2022/08/04 01:52:52;;;;;;;0.00;0.00;;;21.60;99.90;226.50;231333.00;;;;5051491;28;20556;-75
2022/08/04 01:55:21;;;;;;;0.00;0.00;;;21.50;99.90;226.50;231333.00;;;;5058624;28;20205;-75
2022/08/04 01:57:52;;;;;;;0.00;0.00;;;21.60;99.90;226.50;231333.00;;;;5063776;28;20561;-75
2022/08/04 02:00:25;;;;;;;0.00;0.00;;;21.60;99.90;226.50;231333.00;;;;5070725;28;20201;-76
2022/08/04 02:02:55;;;;;;;0.00;0.00;;;21.70;99.90;226.50;231333.00;;;;5074480;28;20218;-75
2022/08/04 02:05:27;;;;;;;0.00;0.00;;;21.60;99.90;226.50;231333.00;;;;5073959;28;20216;-75
2022/08/04 02:08:28;;;;;;;0.00;0.00;;;21.60;99.90;226.50;231333.00;;;;5070272;28;20194;-75
2022/08/04 02:11:05;;;;;;;0.00;0.00;;;21.60;99.90;226.50;231333.00;;;;5054109;28;20217;-75
2022/08/04 02:13:40;;;;;;;0.00;0.00;;;21.60;99.90;226.50;231333.00;;;;5054213;28;20253;-75
2022/08/04 02:16:24;;;;;;;0.00;0.00;;;21.70;99.90;226.50;231333.00;;;;5056993;28;20190;-75
2022/08/04 02:19:09;;;;;;;0.00;0.00;;;21.70;99.90;226.50;231333.00;;;;5067736;28;20189;-75
2022/08/04 02:21:43;;;;;;;0.00;0.00;;;21.60;99.90;226.50;231333.00;;;;5074109;28;20285;-74
2022/08/04 02:24:16;;;;;;;0.00;0.00;;;21.60;99.90;226.50;231333.00;;;;5056843;28;20185;-75
2022/08/04 02:26:50;;;;;;;0.00;0.00;;;21.70;99.90;226.50;231333.00;;;;5057342;28;20205;-74
2022/08/04 02:29:23;;;;;;;0.00;0.00;;;21.60;99.90;226.50;231333.00;;;;5059319;28;20201;-74
2022/08/04 02:32:05;;;;;;;0.00;0.00;;;21.60;99.90;226.50;231333.00;;;;5053889;28;20637;-76
2022/08/04 02:34:46;;;;;;;0.00;0.00;;;21.60;99.90;226.50;231333.00;;;;5054881;28;20696;-76
2022/08/04 02:37:17;;;;;;;0.00;0.00;;;21.50;99.90;226.50;231333.00;;;;5054058;28;20202;-76
2022/08/04 02:39:49;;;;;;;0.00;0.00;;;21.50;99.90;226.50;231333.00;;;;5054612;28;20203;-76
2022/08/04 02:42:19;;;;;;;0.00;0.00;;;21.60;99.90;226.50;231333.00;;;;5071033;28;20232;-76
2022/08/04 02:44:51;;;;;;;0.00;0.00;;;21.60;99.90;226.50;231333.00;;;;5071907;28;20279;-75
2022/08/04 02:47:23;;;;;;;0.00;0.00;;;21.50;99.90;226.50;231333.00;;;;5064135;28;20191;-75
2022/08/04 02:50:14;;;;;;;0.00;0.00;;;21.50;99.90;226.50;231333.00;;;;5067837;28;20210;-75
2022/08/04 02:53:00;;;;;;;0.00;0.00;;;21.50;99.90;226.50;231333.00;;;;5073626;28;20241;-77
2022/08/04 02:55:33;;;;;;;0.00;0.00;;;21.40;99.90;226.50;231333.00;;;;5070194;28;20201;-75
2022/08/04 02:58:05;;;;;;;0.00;0.00;;;21.40;99.90;226.50;231333.00;;;;5056385;28;20202;-77
2022/08/04 03:00:33;;;;;;;0.00;0.00;;;21.30;99.90;226.50;231333.00;;;;5053580;28;20577;-75
2022/08/04 03:03:22;;;;;;;0.00;0.00;;;21.30;99.90;226.50;231333.00;;;;5053549;28;20599;-74
2022/08/04 03:06:21;;;;;;;0.00;0.00;;;21.30;99.90;226.50;231333.00;;;;5053736;28;20205;-75
2022/08/04 03:09:14;;;;;;;0.00;0.00;;;21.30;99.90;226.50;231333.00;;;;5056658;28;20194;-74
2022/08/04 03:12:12;;;;;;;0.00;0.00;;;21.30;99.90;226.50;231333.00;;;;5053399;28;20222;-75
2022/08/04 03:15:17;;;;;;;0.00;0.00;;;21.30;99.90;226.50;231333.00;;;;5053566;28;20632;-74
2022/08/04 03:18:34;;;;;;;0.00;0.00;;;21.30;99.90;226.50;231333.00;;;;5066960;28;20281;-74
2022/08/04 03:21:51;;;;;;;0.00;0.00;;;21.30;99.90;226.50;231333.00;;;;5073209;28;20672;-75
2022/08/04 03:25:08;;;;;;;0.00;0.00;;;21.40;99.90;226.50;231333.00;;;;5065857;28;20208;-74
2022/08/04 03:28:23;;;;;;;0.00;0.00;;;21.30;99.90;226.50;231333.00;;;;5054754;28;20202;-75
2022/08/04 03:31:27;;;;;;;0.00;0.00;;;21.20;99.90;226.50;231333.00;;;;5072280;28;20232;-73
2022/08/04 03:34:25;;;;;;;0.00;0.00;;;21.20;99.90;226.50;231333.00;;;;5072861;28;20209;-75
2022/08/04 03:37:44;;;;;;;0.00;0.00;;;21.20;99.90;226.50;231333.00;;;;5052955;28;20190;-75
2022/08/04 03:41:03;;;;;;;0.00;0.00;;;21.20;99.90;226.50;231333.00;;;;5068229;28;20202;-74
2022/08/04 03:44:20;;;;;;;0.00;0.00;;;21.20;99.90;226.50;231333.00;;;;5072653;28;20583;-74
2022/08/04 03:47:28;;;;;;;0.00;0.00;;;21.30;99.90;226.50;231333.00;;;;5052777;28;20218;-72
2022/08/04 03:50:45;;;;;;;0.00;0.00;;;21.20;99.90;226.50;231333.00;;;;5079379;28;20208;-73
2022/08/04 03:53:37;;;;;;;0.00;0.00;;;21.30;99.90;226.50;231333.00;;;;5059733;28;20233;-77
2022/08/04 03:56:46;;;;;;;0.00;0.00;;;21.30;99.90;226.50;231333.00;;;;5062063;28;20202;-74
2022/08/04 03:59:57;;;;;;;0.00;0.00;;;21.30;99.90;226.50;231333.00;;;;5060905;28;20394;-74
2022/08/04 04:03:25;;;;;;;0.00;0.00;;;21.30;99.90;226.50;231333.00;;;;5065063;28;21613;-74
2022/08/04 04:06:44;;;;;;;0.00;0.00;;;21.20;99.90;226.50;231333.00;;;;5052687;28;20198;-74
2022/08/04 04:09:43;;;;;;;0.00;0.00;;;21.30;99.90;226.50;231333.00;;;;5053080;28;20252;-74
2022/08/04 04:13:06;;;;;;;0.00;0.00;;;21.20;99.90;226.50;231333.00;;;;5052505;28;20218;-75
2022/08/04 04:15:55;;;;;;;0.00;0.00;;;21.10;99.90;226.50;231333.00;;;;5061180;28;20472;-74
2022/08/04 04:18:52;;;;;;;0.00;0.00;;;21.10;99.90;226.50;231333.00;;;;5052977;28;20191;-75
2022/08/04 04:21:59;;;;;;;0.00;0.00;;;21.10;99.90;226.50;231333.00;;;;5080210;28;20205;-75
2022/08/04 04:25:03;;;;;;;0.00;0.00;;;21.10;99.90;226.50;231333.00;;;;5065517;28;20201;-75
2022/08/04 04:27:49;;;;;;;0.00;0.00;;;21.10;99.90;226.50;231333.00;;;;5066237;28;20202;-75
2022/08/04 04:30:25;;;;;;;0.00;0.00;;;21.10;99.90;226.50;231333.00;;;;5053882;28;20277;-74
2022/08/04 04:33:20;;;;;;;0.00;0.00;;;21.10;99.90;226.50;231333.00;;;;5052849;28;20238;-75
2022/08/04 04:36:11;;;;;;;0.00;0.00;;;21.10;99.90;226.50;231333.00;;;;5066925;28;20201;-76
2022/08/04 04:39:03;;;;;;;0.00;0.00;;;21.20;99.90;226.50;231333.00;;;;5071283;28;20204;-75
2022/08/04 04:42:16;;;;;;;0.00;0.00;;;21.20;99.90;226.50;231333.00;;;;5071966;28;20255;-74
2022/08/04 04:45:12;;;;;;;0.00;0.00;;;21.20;99.90;226.50;231333.00;;;;5063115;28;20205;-74
2022/08/04 04:47:56;;;;;;;0.03;0.03;;;21.30;99.90;226.50;231333.00;;;;5052266;28;20569;-74
2022/08/04 04:50:58;;;;;;;0.00;0.00;;;21.20;99.90;226.50;231333.00;;;;5066027;28;20217;-74
2022/08/04 04:53:35;;;;;;;0.00;0.00;;;21.20;99.90;226.50;231333.00;;;;5070763;28;20209;-74
2022/08/04 04:56:14;;;;;;;0.00;0.00;;;21.20;99.90;226.50;231333.00;;;;5068005;28;20186;-75
2022/08/04 04:58:43;;;;;;;0.00;0.00;;;21.20;99.90;226.50;231333.00;;;;5071128;28;20193;-75
2022/08/04 05:01:50;;;;;;;0.00;0.00;;;21.30;99.90;226.50;231333.00;;;;5064601;28;20209;-74
2022/08/04 05:04:42;;;;;;;0.00;0.00;;;21.30;99.90;226.50;231333.00;;;;5057466;28;20205;-75
2022/08/04 05:07:57;;;;;;;0.00;0.00;;;21.40;99.90;226.50;231333.00;;;;5059470;28;20202;-74
2022/08/04 05:10:46;;;;;;;0.00;0.00;;;21.50;99.90;226.50;231333.00;;;;5061016;28;20210;-74
2022/08/04 05:13:33;;;;;;;0.00;0.00;;;21.50;99.90;226.50;231333.00;;;;5070229;28;20210;-75
2022/08/04 05:16:31;;;;;;;0.00;0.00;;;21.60;99.90;226.50;231333.00;;;;5069811;28;20634;-75
2022/08/04 05:19:20;;;;;;;0.00;0.00;;;21.60;99.90;226.50;231333.00;;;;5070007;28;20220;-75
2022/08/04 05:21:56;;;;;;;0.00;0.00;;;21.70;99.90;226.50;231333.00;;;;5070032;28;20711;-75
2022/08/04 05:24:31;;;;;;;0.00;0.00;;;21.80;99.90;226.50;231333.00;;;;5067652;28;20190;-73
2022/08/04 05:27:08;;;;;;;0.00;0.00;;;21.80;99.90;226.50;231333.00;;;;5053216;28;20186;-75
2022/08/04 05:29:51;;;;;;;0.00;0.00;;;21.90;99.90;226.50;231333.00;;;;5070195;28;20201;-77
2022/08/04 05:32:27;;;;;;;0.00;0.00;;;22.00;99.90;226.50;231333.00;;;;5062795;28;20222;-75
2022/08/04 05:35:05;;;;;;;0.00;0.00;;;22.10;99.90;226.50;231333.00;;;;5062466;28;20562;-74
2022/08/04 05:37:38;;;;;;;0.00;0.00;;;22.20;99.90;226.50;231333.00;;;;5066805;28;20202;-75
2022/08/04 05:40:10;;;;;;;0.00;0.00;;;22.30;99.90;226.50;231333.00;;;;5064843;28;20213;-76
2022/08/04 05:42:41;;;;;;;0.00;0.00;;;22.40;99.90;226.50;231333.00;;;;5069331;28;20205;-76
2022/08/04 05:45:11;;;;;;;0.00;0.00;;;22.50;99.90;226.50;231333.00;;;;5071261;28;20213;-76
2022/08/04 05:47:39;;;;;;;0.00;0.00;;;22.50;99.90;226.50;231333.00;;;;5064385;28;20198;-76
2022/08/04 05:50:08;;;;;;;0.00;0.00;;;22.60;99.90;226.50;231333.00;;;;5070782;28;20665;-76
2022/08/04 05:52:38;;;;;;;0.00;0.00;;;22.70;99.90;226.50;231333.00;;;;5074187;28;20230;-75
2022/08/04 05:55:11;;;;;;;0.00;0.00;;;22.80;99.90;226.50;231333.00;;;;5065703;28;20190;-74
2022/08/04 05:57:47;;;;;;;0.00;0.00;;;22.80;99.90;226.50;231333.00;;;;5054318;28;20209;-75
2022/08/04 06:00:21;;;;;;;0.00;0.00;;;22.90;99.90;226.50;231333.00;;;;5074122;28;20280;-74
2022/08/04 06:03:10;;;;;;;0.00;0.00;;;23.00;99.90;226.50;231333.00;;;;5066001;28;20576;-74
2022/08/04 06:05:41;;;;;;;0.00;0.00;;;23.10;99.90;226.50;231333.00;;;;5062289;28;20201;-74
2022/08/04 06:08:10;;;;;;;0.00;0.00;;;23.10;99.90;226.50;231333.00;;;;5071058;28;20217;-74
2022/08/04 06:10:43;;;;;;;0.00;0.00;;;23.30;99.90;226.50;231333.00;;;;5068322;28;20273;-73
2022/08/04 06:13:16;;;;;;;0.00;0.00;;;23.40;99.90;226.50;231333.00;;;;5073625;28;20252;-74
2022/08/04 06:16:08;;;;;;;0.00;0.00;;;23.50;99.90;226.50;231333.00;;;;5059012;28;20539;-74
2022/08/04 06:19:02;;;;;;;0.00;0.00;;;23.60;99.90;226.50;231333.00;;;;5055627;28;20663;-73
2022/08/04 06:21:54;;;;;;;0.00;0.00;;;23.70;99.90;226.50;231333.00;;;;5072714;28;20270;-73
2022/08/04 06:24:28;;;;;;;0.00;0.00;;;23.80;99.90;226.50;231333.00;;;;5073098;28;20251;-74
2022/08/04 06:26:57;;;;;;;0.00;0.00;;;23.90;99.90;226.50;231333.00;;;;5068726;28;20194;-75
2022/08/04 06:29:33;;;;;;;0.00;0.00;;;24.00;99.90;226.50;231333.00;;;;5065337;28;20651;-74
2022/08/04 06:32:12;;;;;;;0.00;0.00;;;24.10;99.90;226.50;231333.00;;;;5063690;28;20225;-73
2022/08/04 06:35:03;;;;;;;0.00;0.00;;;24.20;99.90;226.50;231333.00;;;;5058726;28;20606;-72
2022/08/04 06:37:36;;;;;;;0.00;0.00;;;24.30;99.90;226.50;231333.00;;;;5067283;28;20200;-72
2022/08/04 06:40:13;;;;;;;0.00;0.00;;;24.40;99.90;226.50;231333.00;;;;5073557;28;20263;-75
2022/08/04 06:43:01;;;;;;;0.00;0.00;;;24.50;99.90;226.50;231333.00;;;;5073710;28;20567;-74
2022/08/04 06:45:30;;;;;;;0.00;0.00;;;24.70;99.90;226.50;231333.00;;;;5067534;28;20473;-72
2022/08/04 06:48:01;;;;;;;0.00;0.00;;;24.80;99.90;226.50;231333.00;;;;5067048;28;20195;-72
2022/08/04 06:50:30;;;;;;;0.00;0.00;;;24.80;99.90;226.50;231333.00;;;;5068713;28;20209;-72
2022/08/04 06:53:18;;;;;;;0.00;0.00;;;25.00;99.90;226.50;231333.00;;;;5073150;28;20720;-73
2022/08/04 06:55:49;;;;;;;0.00;0.00;;;25.20;99.90;226.50;231333.00;;;;5069592;28;20197;-73
2022/08/04 06:58:19;;;;;;;0.00;0.00;;;25.30;99.90;226.50;231333.00;;;;5071660;28;20204;-72
2022/08/04 07:00:49;;;;;;;0.00;0.00;;;25.50;99.90;226.50;231333.00;;;;5073985;28;20202;-73
2022/08/04 07:03:20;;;;;;;0.00;0.00;;;25.60;99.90;226.50;231333.00;;;;5073556;28;20587;-73
2022/08/04 07:05:51;;;;;;;0.00;0.00;;;25.80;99.80;226.50;231333.00;;;;5069182;28;20190;-73
2022/08/04 07:08:20;;;;;;;0.00;0.00;;;25.90;99.50;226.50;231333.00;;;;5066224;28;20213;-73
2022/08/04 07:10:49;;;;;;;0.00;0.00;;;26.00;99.30;226.50;231333.00;;;;5064317;28;20551;-72
2022/08/04 07:13:19;;;;;;;0.00;0.00;;;26.20;99.20;226.50;231333.00;;;;5070496;28;20229;-72
2022/08/04 07:15:49;;;;;;;0.00;0.00;;;26.40;98.50;226.50;231333.00;;;;5068083;28;20217;-72
2022/08/04 07:18:19;;;;;;;0.00;0.00;;;26.50;98.60;226.50;231333.00;;;;5066703;28;20535;-72
2022/08/04 07:20:48;;;;;;;0.00;0.00;;;26.60;98.30;226.50;231333.00;;;;5065404;28;20194;-73
2022/08/04 07:23:23;;;;;;;0.00;0.00;;;26.70;98.20;226.50;231333.00;;;;5061421;28;20577;-73
2022/08/04 07:25:52;;;;;;;0.00;0.00;;;26.90;98.10;226.50;231333.00;;;;5073335;28;20193;-72
2022/08/04 07:28:41;;;;;;;0.00;0.00;;;27.10;97.50;226.50;231333.00;;;;5074335;28;20243;-72
2022/08/04 07:31:16;;;;;;;0.00;0.00;;;27.30;97.30;226.50;231333.00;;;;5072974;28;20204;-70
2022/08/04 07:34:04;;;;;;;0.00;0.00;;;27.40;97.10;226.50;231333.00;;;;5068996;28;20246;-73
2022/08/04 07:36:50;;;;;;;0.00;0.00;;;27.50;97.10;226.50;231333.00;;;;5068485;28;20198;-72
2022/08/04 07:39:21;;;;;;;0.00;0.00;;;27.60;96.90;226.50;231333.00;;;;5058193;28;20277;-73
2022/08/04 07:41:58;;;;;;;0.00;0.00;;;27.70;96.50;226.50;231333.00;;;;5052854;28;20276;-74
2022/08/04 07:44:31;;;;;;;0.00;0.00;;;27.90;96.40;226.50;231333.00;;;;5066866;28;20198;-74
2022/08/04 07:47:01;;;;;;;0.00;0.00;;;28.10;96.00;226.50;231333.00;;;;5066161;28;20208;-74
2022/08/04 07:49:31;;;;;;;0.00;0.00;;;28.30;95.50;226.50;231333.00;;;;5063961;28;20225;-74
2022/08/04 07:52:20;;;;;;;0.00;0.00;;;28.40;95.20;226.50;231333.00;;;;5067383;28;20218;-75
2022/08/04 07:54:50;;;;;;;0.00;0.00;;;28.60;95.00;226.50;231333.00;;;;5068440;28;20235;-74
2022/08/04 07:57:19;;;;;;;0.00;0.00;;;28.70;94.80;226.50;231333.00;;;;5072717;28;20190;-77
2022/08/04 08:00:10;;;;;;;0.00;0.00;;;29.00;94.50;226.50;231333.00;;;;5070266;28;20194;-75
2022/08/04 08:02:39;;;;;;;0.00;0.00;;;29.20;93.70;226.50;231333.00;;;;5070156;28;20703;-74
2022/08/04 08:05:13;;;;;;;0.00;0.00;;;29.30;93.30;226.50;231333.00;;;;5071228;28;20197;-73
2022/08/04 08:07:41;;;;;;;0.00;0.00;;;29.50;93.10;226.50;231333.00;;;;5061035;28;20202;-73
2022/08/04 08:10:21;;;;;;;0.00;0.00;;;29.60;93.30;226.50;231333.00;;;;5071752;28;20242;-74
2022/08/04 08:12:51;;;;;;;0.00;0.00;;;29.80;91.30;226.50;231333.00;;;;5069328;28;20225;-73
2022/08/04 08:15:21;;;;;;;0.00;0.00;;;29.90;92.10;226.50;231333.00;;;;5066656;28;20190;-74
2022/08/04 08:17:49;;;;;;;0.00;0.00;;;30.00;91.70;226.50;231333.00;;;;5067387;28;20217;-74
2022/08/04 08:20:30;;;;;;;0.00;0.00;;;30.20;91.10;226.50;231333.00;;;;5071410;28;20193;-74
2022/08/04 08:23:00;;;;;;;0.00;0.00;;;30.40;91.00;226.50;231333.00;;;;5057758;28;20290;-75
2022/08/04 08:25:30;;;;;;;0.00;0.00;;;30.50;90.50;226.50;231333.00;;;;5072348;28;20182;-74
2022/08/04 08:27:59;;;;;;;0.00;0.00;;;30.70;90.70;226.50;231333.00;;;;5072456;28;20190;-74
2022/08/04 08:30:27;;;;;;;0.00;0.00;;;30.80;90.20;226.50;231333.00;;;;5072282;28;20461;-74
2022/08/04 08:33:05;;;;;;;0.00;0.00;;;30.90;89.10;226.50;231333.00;;;;5061287;28;20504;-75
2022/08/04 08:35:51;;;;;;;0.00;0.00;;;31.10;88.90;226.50;231333.00;;;;5056871;28;20194;-74
2022/08/04 08:38:49;;;;;;;0.00;0.00;;;31.30;88.10;226.50;231333.00;;;;5064033;28;20528;-74
2022/08/04 08:41:46;;;;;;;0.00;0.00;;;31.40;87.40;226.50;231333.00;;;;5056650;28;20197;-75
2022/08/04 08:45:14;;;;;;;0.00;0.00;;;31.50;85.40;226.50;231333.00;;;;5070394;28;20201;-74
2022/08/04 08:48:18;;;;;;;0.00;0.00;;;31.60;86.30;226.50;231333.00;;;;5044262;28;20853;-74
2022/08/04 08:51:20;;;;;;;0.00;0.00;;;31.90;85.90;226.50;231333.00;;;;5056611;28;20213;-74
2022/08/04 08:54:08;;;;;;;0.00;0.00;;;32.10;83.80;226.50;231333.00;;;;5068019;28;20223;-73
2022/08/04 08:56:49;;;;;;;0.00;0.00;;;32.10;82.90;226.50;231333.00;;;;5070974;28;20194;-73
2022/08/04 08:59:38;;;;;;;0.00;0.00;;;32.00;82.60;226.50;231333.00;;;;5065819;28;20661;-73
2022/08/04 09:02:46;;;;;;;0.00;0.00;;;32.00;82.60;226.50;231333.00;;;;5061987;28;20214;-73
2022/08/04 09:05:57;;;;;;;0.00;0.00;;;32.20;81.70;226.50;231333.00;;;;5059864;28;20910;-76
2022/08/04 09:08:51;;;;;;;0.00;0.00;;;32.40;81.90;226.50;231333.00;;;;5069284;28;20197;-74
2022/08/04 09:11:23;;;;;;;0.00;0.00;;;32.40;81.10;226.50;231333.00;;;;5058445;28;20205;-73
2022/08/04 09:13:57;;;;;;;0.00;0.00;;;32.50;81.40;226.50;231333.00;;;;5067184;28;20589;-73
2022/08/04 09:16:36;;;;;;;0.00;0.00;;;32.60;80.00;226.50;231333.00;;;;5066626;28;20601;-74
2022/08/04 09:19:15;;;;;;;0.00;0.00;;;32.50;80.00;226.50;231333.00;;;;5069013;28;20212;-73
2022/08/04 09:22:11;;;;;;;0.00;0.00;;;32.70;80.40;226.50;231333.00;;;;5055272;28;20230;-73
2022/08/04 09:24:54;;;;;;;0.00;0.00;;;32.80;80.10;226.50;231333.00;;;;5069800;28;20223;-74
2022/08/04 09:27:34;;;;;;;0.00;0.00;;;32.90;79.00;226.50;231333.00;;;;5065923;28;20198;-74
2022/08/04 09:30:07;;;;;;;0.00;0.00;;;32.90;78.70;226.50;231333.00;;;;5073925;28;20197;-74
2022/08/04 09:32:47;;;;;;;0.00;0.00;;;32.80;79.00;226.50;231333.00;;;;5074067;28;20247;-74
2022/08/04 09:35:25;;;;;;;0.00;0.00;;;32.90;79.50;226.50;231333.00;;;;5068799;28;20192;-74
2022/08/04 09:38:05;;;;;;;0.00;0.00;;;33.20;79.10;226.50;231333.00;;;;5057602;28;20196;-74
2022/08/04 09:40:48;;;;;;;0.00;0.00;;;33.30;78.30;226.50;231333.00;;;;5069186;28;20226;-75
2022/08/04 09:43:40;;;;;;;0.00;0.00;;;33.60;77.10;226.50;231333.00;;;;5064615;28;20220;-74
2022/08/04 09:46:35;;;;;;;0.00;0.00;;;33.70;77.20;226.50;231333.00;;;;5074217;28;20250;-74
2022/08/04 09:49:10;;;;;;;0.00;0.00;;;33.60;76.70;226.50;231333.00;;;;5073444;28;20204;-75
2022/08/04 09:51:53;;;;;;;0.00;0.00;;;33.70;77.00;226.50;231333.00;;;;5062853;28;20193;-75
2022/08/04 09:54:40;;;;;;;0.00;0.00;;;33.80;77.30;33.60;96644.00;;;;5067463;28;20229;-75
2022/08/04 09:57:23;;;;;;;0.00;0.00;;;33.90;76.50;33.70;96622.00;;;;5060340;28;20221;-74
2022/08/04 10:00:00;;;;;;;0.00;0.00;;;34.00;75.80;33.70;96635.00;;;;5065708;28;20213;-74
2022/08/04 10:02:44;;;;;;;0.00;0.00;;;34.00;75.40;33.90;96624.00;;;;5065146;28;20221;-75
2022/08/04 10:05:20;;;;;;;0.00;0.00;;;34.10;75.50;34.10;96629.00;;;;5073217;28;20589;-75
2022/08/04 10:08:14;;;;;;;0.00;0.00;;;34.30;75.00;33.90;96614.00;;;;5072803;28;20203;-75
2022/08/04 10:10:59;;;;;;;0.00;0.00;;;34.10;74.20;34.00;96628.00;;;;5067200;28;20284;-75
2022/08/04 10:13:48;;;;;;;0.00;0.00;;;34.20;74.80;33.90;96626.00;;;;5070336;28;20661;-75
2022/08/04 10:16:37;;;;;;;0.00;0.00;;;34.10;74.30;34.00;96672.00;;;;5059985;28;20190;-75
2022/08/04 10:19:20;;;;;;;0.00;0.00;;;34.20;73.80;33.90;96640.00;;;;5073744;28;20200;-75
2022/08/04 10:22:09;;;;;;;0.00;0.00;;;34.10;73.70;33.90;96654.00;;;;5066951;28;20196;-76
2022/08/04 10:25:10;;;;;;;0.00;0.00;;;34.10;73.60;34.00;96673.00;;;;5070613;28;20196;-75
2022/08/04 10:28:06;;;;;;;0.00;0.00;;;34.20;73.30;34.20;96662.00;;;;5065220;28;20407;-76
2022/08/04 10:30:40;;;;;;;0.00;0.00;;;34.50;72.50;33.90;96655.00;;;;5063455;28;20265;-75
2022/08/04 10:33:20;;;;;;;0.00;0.00;;;34.30;72.70;34.10;96645.00;;;;5065962;28;20224;-75
2022/08/04 10:35:53;;;;;;;0.00;0.00;;;34.40;72.20;34.30;96640.00;;;;5058348;28;20193;-77
2022/08/04 10:38:30;;;;;;;0.00;0.00;;;34.50;71.90;34.60;96635.00;;;;5065485;28;20205;-75
2022/08/04 10:41:09;;;;;;;0.00;0.00;;;34.70;71.90;34.60;96613.00;;;;5066313;28;20205;-75
2022/08/04 10:43:55;;;;;;;0.00;0.00;;;34.80;71.80;34.50;96613.00;;;;5060136;28;20583;-76
2022/08/04 10:46:31;;;;;;;0.00;0.00;;;34.70;71.50;34.30;96588.00;;;;5071524;28;20569;-75
2022/08/04 10:49:04;;;;;;;0.00;0.00;;;34.60;71.20;34.50;96599.00;;;;5073514;28;20196;-76
2022/08/04 10:51:42;;;;;;;0.00;0.00;;;34.70;71.30;34.80;96615.00;;;;5059132;28;20197;-75
2022/08/04 10:54:32;;;;;;;0.00;0.00;;;35.00;70.80;34.70;96629.00;;;;5070373;28;20217;-75
2022/08/04 10:57:08;;;;;;;0.00;0.00;;;34.90;69.90;35.00;96601.00;;;;5064937;28;20200;-75
2022/08/04 10:59:49;;;;;;;0.00;0.00;;;35.20;70.10;34.40;96606.00;;;;5068338;28;20207;-76
2022/08/04 11:02:37;;;;;;;0.00;0.00;;;35.00;68.70;34.90;96604.00;;;;5072405;28;20611;-75
2022/08/04 11:05:23;;;;;;;0.00;0.00;;;35.20;69.50;34.90;96584.00;;;;5053343;28;20204;-75
2022/08/04 11:07:59;;;;;;;0.00;0.00;;;35.20;69.00;35.10;96605.00;;;;5059162;28;20193;-77
2022/08/04 11:10:35;;;;;;;0.00;0.00;;;35.30;68.40;34.90;96609.00;;;;5072241;28;20195;-76
2022/08/04 11:13:10;;;;;;;0.00;0.00;;;35.10;68.10;34.40;96618.00;;;;5056486;28;20633;-75
2022/08/04 11:15:58;;;;;;;0.00;0.00;;;34.80;68.70;34.50;96563.00;;;;5053584;28;20209;-76
2022/08/04 11:18:38;;;;;;;0.00;0.00;;;35.00;68.60;35.00;96593.00;;;;5070618;28;20205;-75
2022/08/04 11:21:15;;;;;;;0.00;0.00;;;35.20;68.30;35.20;96423.00;;;;5070877;28;20203;-75
2022/08/04 11:24:07;;;;;;;0.00;0.00;;;35.50;67.60;35.60;96490.00;;;;5072597;28;20232;-75
2022/08/04 11:26:45;;;;;;;0.00;0.00;;;35.70;65.80;226.50;231333.00;;;;5068774;28;20189;-75
2022/08/04 11:29:25;;;;;;;0.00;0.00;;;35.90;65.90;226.50;231333.00;;;;5071740;28;20193;-75
2022/08/04 11:31:58;;;;;;;0.00;0.00;;;36.10;65.30;226.50;231333.00;;;;5072156;28;20598;-75
2022/08/04 11:34:28;;;;;;;0.00;0.00;;;36.20;63.90;226.50;231333.00;;;;5053107;28;20215;-76
2022/08/04 11:37:09;;;;;;;0.00;0.00;;;36.00;64.30;226.50;231333.00;;;;5059703;28;20676;-75
2022/08/04 11:39:49;;;;;;;0.00;0.00;;;36.00;64.50;226.50;231333.00;;;;5064751;28;20694;-75
2022/08/04 11:42:23;;;;;;;0.00;0.00;;;36.00;64.50;36.20;96556.00;;;;5056542;28;20220;-76
2022/08/04 11:44:59;;;;;;;0.00;0.00;;;36.30;64.60;36.00;96571.00;;;;5071987;28;20196;-76
2022/08/04 11:47:32;;;;;;;0.00;0.00;;;36.20;64.00;36.00;96552.00;;;;5065983;28;20189;-76
2022/08/04 11:50:08;;;;;;;0.00;0.00;;;36.30;63.80;36.40;96539.00;;;;5072202;28;20754;-76
2022/08/04 11:52:40;;;;;;;0.00;0.00;;;36.50;63.10;36.50;96584.00;;;;5066024;28;20220;-75